createdAt,value
2018-10-09T00:01:40.446Z,9.50
2018-10-09T00:04:08.472Z,9.40
2018-10-09T00:06:36.516Z,9.40
2018-10-09T00:09:06.290Z,9.40
2018-10-09T00:11:34.436Z,9.40
2018-10-09T00:14:02.512Z,9.30
2018-10-09T00:16:30.533Z,9.30
2018-10-09T00:18:58.917Z,9.20
2018-10-09T00:21:26.989Z,9.20
2018-10-09T00:23:55.005Z,9.10
2018-10-09T00:26:23.145Z,9.10
2018-10-09T00:28:51.187Z,9.10
2018-10-09T00:31:19.314Z,9.10
2018-10-09T00:33:47.347Z,9.00
2018-10-09T00:36:15.407Z,9.00
2018-10-09T00:38:43.461Z,9.00
2018-10-09T00:41:11.536Z,9.00
2018-10-09T00:43:39.580Z,9.00
2018-10-09T00:46:07.664Z,9.00
2018-10-09T00:48:35.694Z,9.00
2018-10-09T00:51:03.769Z,9.00
2018-10-09T00:53:31.843Z,9.00
2018-10-09T00:55:59.879Z,9.00
2018-10-09T00:58:27.925Z,9.00
2018-10-09T01:00:56.018Z,9.00
2018-10-09T01:03:24.116Z,9.00
2018-10-09T01:05:52.168Z,9.00
2018-10-09T01:08:20.244Z,9.00
2018-10-09T01:10:48.261Z,9.00
2018-10-09T01:13:16.386Z,9.00
2018-10-09T01:15:44.390Z,9.00
2018-10-09T01:18:12.433Z,9.00
2018-10-09T01:20:40.491Z,9.00
2018-10-09T01:23:08.577Z,9.00
2018-10-09T01:25:36.652Z,9.00
2018-10-09T01:28:04.692Z,9.00
2018-10-09T01:30:32.750Z,9.00
2018-10-09T01:33:00.811Z,9.00
2018-10-09T01:35:28.876Z,9.00
2018-10-09T01:37:56.949Z,9.00
2018-10-09T01:40:25.009Z,9.00
2018-10-09T01:42:53.100Z,8.90
2018-10-09T01:45:21.122Z,8.90
2018-10-09T01:47:49.293Z,8.90
2018-10-09T01:50:17.433Z,8.90
2018-10-09T01:52:45.467Z,8.90
2018-10-09T01:55:13.602Z,8.90
2018-10-09T01:57:41.626Z,8.80
2018-10-09T02:00:09.679Z,8.80
2018-10-09T02:02:37.762Z,8.80
2018-10-09T02:05:05.829Z,8.70
2018-10-09T02:07:33.905Z,8.70
2018-10-09T02:10:02.022Z,8.60
2018-10-09T02:12:30.153Z,8.60
2018-10-09T02:14:58.221Z,8.50
2018-10-09T02:17:26.590Z,8.40
2018-10-09T02:19:54.629Z,8.40
2018-10-09T02:22:22.664Z,8.40
2018-10-09T02:24:50.688Z,8.40
2018-10-09T02:27:18.725Z,8.30
2018-10-09T02:29:46.840Z,8.30
2018-10-09T02:32:14.896Z,8.30
2018-10-09T02:34:42.953Z,8.30
2018-10-09T02:37:10.997Z,8.20
2018-10-09T02:39:39.068Z,8.20
2018-10-09T02:42:07.188Z,8.30
2018-10-09T02:44:35.245Z,8.30
2018-10-09T02:47:03.312Z,8.20
2018-10-09T02:49:31.390Z,8.30
2018-10-09T02:51:59.486Z,8.30
2018-10-09T02:54:27.549Z,8.30
2018-10-09T02:56:55.600Z,8.30
2018-10-09T02:59:23.625Z,8.30
2018-10-09T03:01:51.658Z,8.30
2018-10-09T03:04:19.689Z,8.30
2018-10-09T03:06:47.771Z,8.40
2018-10-09T03:09:15.821Z,8.40
2018-10-09T03:11:44.052Z,8.30
2018-10-09T03:14:12.094Z,8.30
2018-10-09T03:16:40.125Z,8.30
2018-10-09T03:19:08.225Z,8.30
2018-10-09T03:21:36.294Z,8.30
2018-10-09T03:24:04.681Z,8.30
2018-10-09T03:26:32.906Z,8.30
2018-10-09T03:29:01.074Z,8.30
2018-10-09T03:31:29.178Z,8.30
2018-10-09T03:33:57.171Z,8.30
2018-10-09T03:36:25.241Z,8.30
2018-10-09T03:38:53.305Z,8.30
2018-10-09T03:41:21.354Z,8.30
2018-10-09T03:43:49.434Z,8.30
2018-10-09T03:46:17.519Z,8.20
2018-10-09T03:48:45.640Z,8.30
2018-10-09T03:51:13.658Z,8.30
2018-10-09T03:53:41.701Z,8.20
2018-10-09T03:56:09.725Z,8.20
2018-10-09T03:58:37.775Z,8.20
2018-10-09T04:01:05.853Z,8.10
2018-10-09T04:03:33.893Z,8.10
2018-10-09T04:06:01.975Z,8.10
2018-10-09T04:08:30.006Z,8.10
2018-10-09T04:10:58.062Z,8.00
2018-10-09T04:13:26.114Z,8.00
2018-10-09T04:15:54.186Z,8.00
2018-10-09T04:18:22.398Z,8.00
2018-10-09T04:20:50.445Z,8.00
2018-10-09T04:23:18.470Z,7.90
2018-10-09T04:25:46.497Z,8.00
2018-10-09T04:28:14.627Z,7.90
2018-10-09T04:30:42.711Z,7.90
2018-10-09T04:33:10.789Z,7.90
2018-10-09T04:35:38.890Z,7.90
2018-10-09T04:38:06.991Z,7.80
2018-10-09T04:40:35.090Z,7.80
2018-10-09T04:43:03.150Z,7.80
2018-10-09T04:45:31.232Z,7.80
2018-10-09T04:47:59.282Z,7.70
2018-10-09T04:50:27.325Z,7.70
2018-10-09T04:52:55.411Z,7.60
2018-10-09T04:55:23.423Z,7.60
2018-10-09T04:57:51.490Z,7.60
2018-10-09T05:00:19.545Z,7.60
2018-10-09T05:02:47.768Z,7.60
2018-10-09T05:05:15.820Z,7.60
2018-10-09T05:07:43.901Z,7.50
2018-10-09T05:10:11.991Z,7.60
2018-10-09T05:12:40.070Z,7.60
2018-10-09T05:15:08.330Z,7.60
2018-10-09T05:17:36.405Z,7.60
2018-10-09T05:20:06.521Z,7.60
2018-10-09T05:22:34.764Z,7.60
2018-10-09T05:25:02.861Z,7.60
2018-10-09T05:27:30.894Z,7.60
2018-10-09T05:29:58.932Z,8.10
2018-10-09T05:32:26.994Z,8.40
2018-10-09T05:34:55.013Z,8.60
2018-10-09T05:37:23.157Z,8.60
2018-10-09T05:39:51.256Z,8.60
2018-10-09T05:42:19.313Z,8.50
2018-10-09T05:44:47.394Z,8.40
2018-10-09T05:47:15.452Z,8.30
2018-10-09T05:49:43.477Z,8.30
2018-10-09T05:52:11.530Z,8.20
2018-10-09T05:54:39.597Z,8.10
2018-10-09T05:57:07.736Z,8.10
2018-10-09T05:59:37.125Z,8.00
2018-10-09T06:02:05.521Z,7.90
2018-10-09T06:04:33.537Z,7.90
2018-10-09T06:07:01.649Z,7.90
2018-10-09T06:09:29.744Z,7.90
2018-10-09T06:11:57.825Z,7.90
2018-10-09T06:14:25.902Z,7.90
2018-10-09T06:16:54.000Z,7.90
2018-10-09T06:19:22.061Z,7.90
2018-10-09T06:21:50.131Z,7.90
2018-10-09T06:24:18.216Z,7.90
2018-10-09T06:26:46.325Z,7.90
2018-10-09T06:29:14.365Z,8.00
2018-10-09T06:31:42.449Z,8.00
2018-10-09T06:34:10.575Z,8.00
2018-10-09T06:36:38.561Z,8.10
2018-10-09T06:39:06.996Z,8.20
2018-10-09T06:41:35.078Z,8.30
2018-10-09T06:44:03.145Z,8.30
2018-10-09T06:46:31.201Z,8.40
2018-10-09T06:48:59.260Z,8.40
2018-10-09T06:51:27.297Z,8.50
2018-10-09T06:53:55.683Z,8.50
2018-10-09T06:56:23.560Z,8.50
2018-10-09T06:58:51.636Z,8.50
2018-10-09T07:01:19.656Z,8.50
2018-10-09T07:03:47.720Z,8.50
2018-10-09T07:06:15.851Z,8.50
2018-10-09T07:08:43.873Z,8.60
2018-10-09T07:11:12.078Z,8.70
2018-10-09T07:13:40.021Z,8.70
2018-10-09T07:16:08.041Z,8.90
2018-10-09T07:18:36.201Z,9.00
2018-10-09T07:21:04.253Z,9.10
2018-10-09T07:23:32.283Z,9.20
2018-10-09T07:26:00.329Z,9.30
2018-10-09T07:28:28.379Z,9.40
2018-10-09T07:30:56.500Z,9.50
2018-10-09T07:33:24.720Z,9.60
2018-10-09T07:35:52.809Z,9.60
2018-10-09T07:38:20.849Z,9.70
2018-10-09T07:40:48.909Z,9.70
2018-10-09T07:43:17.131Z,9.80
2018-10-09T07:45:45.186Z,9.80
2018-10-09T07:48:13.312Z,9.90
2018-10-09T07:50:41.357Z,9.90
2018-10-09T07:53:09.469Z,9.90
2018-10-09T07:55:37.542Z,10.00
2018-10-09T07:58:06.773Z,10.00
2018-10-09T08:00:34.825Z,10.10
2018-10-09T08:03:02.864Z,10.20
2018-10-09T08:05:30.912Z,10.30
2018-10-09T08:07:58.975Z,10.30
2018-10-09T08:10:27.027Z,10.50
2018-10-09T08:12:55.097Z,10.60
2018-10-09T08:15:23.179Z,10.80
2018-10-09T08:17:51.268Z,10.90
2018-10-09T08:20:19.331Z,11.00
2018-10-09T08:22:47.435Z,11.10
2018-10-09T08:25:15.499Z,11.30
2018-10-09T08:27:43.588Z,11.50
2018-10-09T08:30:11.670Z,11.60
2018-10-09T08:32:39.737Z,11.80
2018-10-09T08:35:07.821Z,12.00
2018-10-09T08:37:35.909Z,12.10
2018-10-09T08:40:04.337Z,12.20
2018-10-09T08:42:32.395Z,12.30
2018-10-09T08:45:00.436Z,12.40
2018-10-09T08:47:28.515Z,12.50
2018-10-09T08:49:56.566Z,12.60
2018-10-09T08:52:24.650Z,12.70
2018-10-09T08:54:52.719Z,12.70
2018-10-09T08:57:20.790Z,12.80
2018-10-09T08:59:48.825Z,12.90
2018-10-09T09:02:17.097Z,13.00
2018-10-09T09:04:45.200Z,13.00
2018-10-09T09:07:13.295Z,13.10
2018-10-09T09:09:41.448Z,13.20
2018-10-09T09:12:09.574Z,13.30
2018-10-09T09:14:37.598Z,13.40
2018-10-09T09:17:05.723Z,13.40
2018-10-09T09:19:33.845Z,13.50
2018-10-09T09:22:01.913Z,13.50
2018-10-09T09:24:29.976Z,13.50
2018-10-09T09:26:58.104Z,13.60
2018-10-09T09:29:26.085Z,13.70
2018-10-09T09:31:54.369Z,13.80
2018-10-09T09:34:29.173Z,13.90
2018-10-09T09:36:57.269Z,14.00
2018-10-09T09:41:59.744Z,14.10
2018-10-09T09:44:27.780Z,14.20
2018-10-09T09:46:55.869Z,14.30
2018-10-09T09:49:23.934Z,14.40
2018-10-09T09:51:52.052Z,14.50
2018-10-09T09:54:20.087Z,14.70
2018-10-09T09:56:48.105Z,14.80
2018-10-09T09:59:16.221Z,15.00
2018-10-09T10:01:44.138Z,15.10
2018-10-09T10:04:12.206Z,15.20
2018-10-09T10:06:40.294Z,15.30
2018-10-09T10:09:08.394Z,15.40
2018-10-09T10:11:38.039Z,15.50
2018-10-09T10:14:06.810Z,15.60
2018-10-09T10:16:34.856Z,15.60
2018-10-09T10:19:02.941Z,15.60
2018-10-09T10:21:31.074Z,15.80
2018-10-09T10:23:59.088Z,15.90
2018-10-09T10:26:27.131Z,16.00
2018-10-09T10:28:55.309Z,16.10
2018-10-09T10:31:23.413Z,16.10
2018-10-09T10:33:52.183Z,16.20
2018-10-09T10:36:20.224Z,16.20
2018-10-09T10:38:48.298Z,16.20
2018-10-09T10:41:16.422Z,16.20
2018-10-09T10:43:44.481Z,16.20
2018-10-09T10:46:12.549Z,16.10
2018-10-09T10:49:21.551Z,16.10
2018-10-09T10:51:49.672Z,16.00
2018-10-09T10:54:17.997Z,16.00
2018-10-09T10:56:46.200Z,15.90
2018-10-09T10:59:14.289Z,15.80
2018-10-09T11:01:42.360Z,15.80
2018-10-09T11:04:10.519Z,15.80
2018-10-09T11:06:38.649Z,15.80
2018-10-09T11:09:08.784Z,15.80
2018-10-09T11:11:36.979Z,15.90
2018-10-09T11:14:05.097Z,15.90
2018-10-09T11:16:33.166Z,15.90
2018-10-09T11:19:01.216Z,15.90
2018-10-09T11:21:29.427Z,15.90
2018-10-09T11:23:57.527Z,16.00
2018-10-09T11:26:25.576Z,16.20
2018-10-09T11:28:53.623Z,16.20
2018-10-09T11:31:21.698Z,16.30
2018-10-09T11:33:49.742Z,16.30
2018-10-09T11:36:18.087Z,16.50
2018-10-09T11:38:46.163Z,16.50
2018-10-09T11:41:14.198Z,16.60
2018-10-09T11:43:42.270Z,16.70
2018-10-09T11:46:10.311Z,16.80
2018-10-09T11:48:38.357Z,16.90
2018-10-09T11:51:06.439Z,17.10
2018-10-09T11:53:34.508Z,17.10
2018-10-09T11:56:02.557Z,17.20
2018-10-09T11:58:30.794Z,17.30
2018-10-09T12:00:58.837Z,17.40
2018-10-09T12:03:26.949Z,17.60
2018-10-09T12:05:55.083Z,17.80
2018-10-09T12:08:23.091Z,17.90
2018-10-09T12:10:51.143Z,18.10
2018-10-09T12:13:19.229Z,18.10
2018-10-09T12:15:47.313Z,18.30
2018-10-09T12:18:16.334Z,18.40
2018-10-09T12:20:44.643Z,18.50
2018-10-09T12:23:12.672Z,18.60
2018-10-09T12:25:40.755Z,18.60
2018-10-09T12:28:08.878Z,18.60
2018-10-09T12:30:36.933Z,18.80
2018-10-09T12:33:05.001Z,18.80
2018-10-09T12:35:33.070Z,19.00
2018-10-09T12:38:01.171Z,19.10
2018-10-09T12:40:29.288Z,19.10
2018-10-09T12:42:57.345Z,19.20
2018-10-09T12:45:25.585Z,19.30
2018-10-09T12:47:53.811Z,19.40
2018-10-09T12:50:21.877Z,19.50
2018-10-09T12:52:49.965Z,19.60
2018-10-09T12:55:18.017Z,19.70
2018-10-09T12:57:46.067Z,19.80
2018-10-09T13:00:14.331Z,19.90
2018-10-09T13:02:42.408Z,20.00
2018-10-09T13:05:10.605Z,20.00
2018-10-09T13:07:38.833Z,20.10
2018-10-09T13:10:06.954Z,20.10
2018-10-09T13:12:35.013Z,20.20
2018-10-09T13:15:03.176Z,20.30
2018-10-09T13:17:31.338Z,20.40
2018-10-09T13:19:59.357Z,20.40
2018-10-09T13:22:27.813Z,20.20
2018-10-09T13:24:55.450Z,20.20
2018-10-09T13:27:23.504Z,20.20
2018-10-09T13:29:51.544Z,20.20
2018-10-09T13:32:19.725Z,20.30
2018-10-09T13:34:47.798Z,20.20
2018-10-09T13:37:15.909Z,20.20
2018-10-09T13:39:43.986Z,20.20
2018-10-09T13:42:12.463Z,20.20
2018-10-09T13:44:40.546Z,20.30
2018-10-09T13:47:08.784Z,20.40
2018-10-09T13:49:37.004Z,20.40
2018-10-09T13:52:05.800Z,20.50
2018-10-09T13:54:33.833Z,20.50
2018-10-09T13:57:01.872Z,20.60
2018-10-09T13:59:30.463Z,20.70
2018-10-09T14:01:58.652Z,20.70
2018-10-09T14:04:27.293Z,20.70
2018-10-09T14:06:55.382Z,20.70
2018-10-09T14:09:23.485Z,20.70
2018-10-09T14:11:51.583Z,20.80
2018-10-09T14:14:19.758Z,20.90
2018-10-09T14:16:47.815Z,21.00
2018-10-09T14:19:15.926Z,21.00
2018-10-09T14:21:44.008Z,21.10
2018-10-09T14:24:12.059Z,21.10
2018-10-09T14:26:40.140Z,21.10
2018-10-09T14:29:08.221Z,21.20
2018-10-09T14:31:36.292Z,21.20
2018-10-09T14:34:04.388Z,21.20
2018-10-09T14:36:32.501Z,21.20
2018-10-09T14:39:00.581Z,21.30
2018-10-09T14:41:28.671Z,21.30
2018-10-09T14:43:57.308Z,21.30
2018-10-09T14:46:25.437Z,21.30
2018-10-09T14:48:53.505Z,21.30
2018-10-09T14:51:21.712Z,21.30
2018-10-09T14:53:49.854Z,21.30
2018-10-09T14:56:17.919Z,21.40
2018-10-09T14:58:45.993Z,21.40
2018-10-09T15:01:14.138Z,21.40
2018-10-09T15:03:42.245Z,21.40
2018-10-09T15:06:10.315Z,21.40
2018-10-09T15:08:38.482Z,21.40
2018-10-09T15:11:06.624Z,21.40
2018-10-09T15:13:34.714Z,21.30
2018-10-09T15:16:02.930Z,21.30
2018-10-09T15:18:30.992Z,21.30
2018-10-09T15:20:59.048Z,21.30
2018-10-09T15:23:27.133Z,21.30
2018-10-09T15:25:55.203Z,21.30
2018-10-09T15:28:23.325Z,21.30
2018-10-09T15:30:51.417Z,21.20
2018-10-09T15:33:19.441Z,21.20
2018-10-09T15:35:47.654Z,21.20
2018-10-09T15:38:15.795Z,21.10
2018-10-09T15:40:45.935Z,21.10
2018-10-09T15:43:13.999Z,21.10
2018-10-09T15:45:42.098Z,21.10
2018-10-09T15:48:10.169Z,21.00
2018-10-09T15:50:38.457Z,21.00
2018-10-09T15:53:06.524Z,20.90
2018-10-09T15:55:34.635Z,20.90
2018-10-09T15:58:02.921Z,20.90
2018-10-09T16:00:30.983Z,20.80
2018-10-09T16:02:59.109Z,20.80
2018-10-09T16:05:27.262Z,20.80
2018-10-09T16:07:55.365Z,20.80
2018-10-09T16:10:23.538Z,20.70
2018-10-09T16:12:51.740Z,20.70
2018-10-09T16:15:19.877Z,20.60
2018-10-09T16:17:48.018Z,20.60
2018-10-09T16:20:16.146Z,20.50
2018-10-09T16:22:50.997Z,20.50
2018-10-09T16:25:19.167Z,20.40
2018-10-09T16:27:47.248Z,20.30
2018-10-09T16:30:15.337Z,20.20
2018-10-09T16:32:43.582Z,20.20
2018-10-09T16:35:11.641Z,20.10
2018-10-09T16:37:39.791Z,20.00
2018-10-09T16:40:07.883Z,19.90
2018-10-09T16:42:36.000Z,19.90
2018-10-09T16:45:04.113Z,19.80
2018-10-09T16:47:32.309Z,19.80
2018-10-09T16:50:00.313Z,19.70
2018-10-09T16:52:28.370Z,19.60
2018-10-09T16:54:56.709Z,19.50
2018-10-09T16:57:24.770Z,19.40
2018-10-09T16:59:53.032Z,19.40
2018-10-09T17:02:21.288Z,19.40
2018-10-09T17:04:50.214Z,19.20
2018-10-09T17:07:18.486Z,19.10
2018-10-09T17:09:46.568Z,19.10
2018-10-09T17:12:14.744Z,19.00
2018-10-09T17:14:42.878Z,18.90
2018-10-09T17:17:10.937Z,18.80
2018-10-09T17:19:39.121Z,18.70
2018-10-09T17:22:07.215Z,18.70
2018-10-09T17:24:35.256Z,18.60
2018-10-09T17:27:03.382Z,18.40
2018-10-09T17:29:31.456Z,18.40
2018-10-09T17:32:02.435Z,18.30
2018-10-09T17:34:32.674Z,18.30
2018-10-09T17:37:02.144Z,18.20
2018-10-09T17:39:30.554Z,18.10
2018-10-09T17:41:58.639Z,18.00
2018-10-09T17:44:26.829Z,18.00
2018-10-09T17:46:55.591Z,17.90
2018-10-09T17:49:23.677Z,17.80
2018-10-09T17:51:52.298Z,17.80
2018-10-09T17:54:20.601Z,17.80
2018-10-09T17:56:48.670Z,17.80
2018-10-09T17:59:16.786Z,17.70
2018-10-09T18:01:44.926Z,17.70
2018-10-09T18:04:13.076Z,17.60
2018-10-09T18:06:41.279Z,17.60
2018-10-09T18:09:10.129Z,17.50
2018-10-09T18:11:38.246Z,17.50
2018-10-09T18:14:06.353Z,17.30
2018-10-09T18:16:34.555Z,17.20
2018-10-09T18:19:02.630Z,17.10
2018-10-09T18:21:30.910Z,16.90
2018-10-09T18:23:58.981Z,16.80
2018-10-09T18:26:27.115Z,16.80
2018-10-09T18:28:55.247Z,16.70
2018-10-09T18:31:23.324Z,16.60
2018-10-09T18:33:51.428Z,16.50
2018-10-09T18:36:19.524Z,16.40
2018-10-09T18:38:47.672Z,16.40
2018-10-09T18:41:15.920Z,16.30
2018-10-09T18:43:43.979Z,16.30
2018-10-09T18:46:12.111Z,16.20
2018-10-09T18:48:40.233Z,16.20
2018-10-09T18:51:08.346Z,16.20
2018-10-09T18:53:36.421Z,16.20
2018-10-09T18:56:04.810Z,16.20
2018-10-09T18:58:32.878Z,16.20
2018-10-09T19:01:01.066Z,16.20
2018-10-09T19:03:29.186Z,16.10
2018-10-09T19:05:57.489Z,16.10
2018-10-09T19:08:25.927Z,16.00
2018-10-09T19:10:54.137Z,15.90
2018-10-09T19:13:22.236Z,15.90
2018-10-09T19:15:50.783Z,15.90
2018-10-09T19:18:19.278Z,15.80
2018-10-09T19:20:47.880Z,15.80
2018-10-09T19:23:16.427Z,15.70
2018-10-09T19:25:44.540Z,15.70
2018-10-09T19:28:14.038Z,15.60
2018-10-09T19:30:46.617Z,15.60
2018-10-09T19:33:14.672Z,15.50
2018-10-09T19:35:42.844Z,15.50
2018-10-09T19:38:10.975Z,15.50
2018-10-09T19:40:39.019Z,15.40
2018-10-09T19:43:07.438Z,15.40
2018-10-09T19:45:35.588Z,15.40
2018-10-09T19:48:03.846Z,15.30
2018-10-09T19:50:32.011Z,15.30
2018-10-09T19:53:00.089Z,15.20
2018-10-09T19:55:28.235Z,15.00
2018-10-09T19:57:56.570Z,15.00
2018-10-09T20:00:24.671Z,15.00
2018-10-09T20:02:52.810Z,15.00
2018-10-09T20:05:20.929Z,15.00
2018-10-09T20:07:49.153Z,14.90
2018-10-09T20:10:17.362Z,14.90
2018-10-09T20:12:45.494Z,14.90
2018-10-09T20:15:13.625Z,14.80
2018-10-09T20:17:41.774Z,14.80
2018-10-09T20:20:10.125Z,14.80
2018-10-09T20:22:38.233Z,14.70
2018-10-09T20:25:06.402Z,14.70
2018-10-09T20:27:34.487Z,14.70
2018-10-09T20:30:02.573Z,14.60
2018-10-09T20:32:30.682Z,14.60
2018-10-09T20:34:58.829Z,14.70
2018-10-09T20:37:27.068Z,14.70
2018-10-09T20:39:55.149Z,14.70
2018-10-09T20:42:23.313Z,14.70
2018-10-09T20:44:51.428Z,14.60
2018-10-09T20:47:19.497Z,14.60
2018-10-09T20:49:47.573Z,14.60
2018-10-09T20:52:15.875Z,14.50
2018-10-09T20:54:50.732Z,14.50
2018-10-09T20:57:19.889Z,14.40
2018-10-09T20:59:49.021Z,14.40
2018-10-09T21:02:17.193Z,14.30
2018-10-09T21:04:47.241Z,14.30
2018-10-09T21:07:15.546Z,14.30
2018-10-09T21:09:44.209Z,14.20
2018-10-09T21:12:12.309Z,14.20
2018-10-09T21:14:40.358Z,14.20
2018-10-09T21:17:08.449Z,14.10
2018-10-09T21:19:36.535Z,14.00
2018-10-09T21:22:04.672Z,14.00
2018-10-09T21:24:32.729Z,13.90
2018-10-09T21:27:00.769Z,13.80
2018-10-09T21:29:28.913Z,13.80
2018-10-09T21:31:57.090Z,13.80
2018-10-09T21:34:25.142Z,13.80
2018-10-09T21:36:53.214Z,13.80
2018-10-09T21:39:21.254Z,13.70
2018-10-09T21:41:49.486Z,13.80
2018-10-09T21:44:17.941Z,13.70
2018-10-09T21:46:46.204Z,13.70
2018-10-09T21:49:14.297Z,13.70
2018-10-09T21:51:42.342Z,13.70
2018-10-09T21:54:10.376Z,13.60
2018-10-09T21:56:38.422Z,13.60
2018-10-09T21:59:06.581Z,13.50
2018-10-09T22:01:34.643Z,13.50
2018-10-09T22:04:02.757Z,13.40
2018-10-09T22:06:30.826Z,13.30
2018-10-09T22:08:58.889Z,13.30
2018-10-09T22:11:26.946Z,13.30
2018-10-09T22:13:54.991Z,13.30
2018-10-09T22:16:23.040Z,13.30
2018-10-09T22:18:51.156Z,13.30
2018-10-09T22:21:19.354Z,13.30
2018-10-09T22:23:47.499Z,13.30
2018-10-09T22:26:15.802Z,13.30
2018-10-09T22:28:43.973Z,13.30
2018-10-09T22:31:12.021Z,13.20
2018-10-09T22:33:40.089Z,13.20
2018-10-09T22:36:08.174Z,13.20
2018-10-09T22:38:36.311Z,13.20
2018-10-09T22:41:04.305Z,13.20
2018-10-09T22:43:32.371Z,13.20
2018-10-09T22:46:00.424Z,13.20
2018-10-09T22:48:28.474Z,13.20
2018-10-09T22:50:56.524Z,13.20
2018-10-09T22:53:24.590Z,13.20
2018-10-09T22:55:52.626Z,13.20
2018-10-09T22:58:20.788Z,13.10
2018-10-09T23:00:48.812Z,13.10
2018-10-09T23:03:16.973Z,13.20
2018-10-09T23:05:44.989Z,13.20
2018-10-09T23:08:13.093Z,13.20
2018-10-09T23:10:41.142Z,13.20
2018-10-09T23:13:09.202Z,13.20
2018-10-09T23:15:37.243Z,13.20
2018-10-09T23:18:05.493Z,13.20
2018-10-09T23:20:33.568Z,13.10
2018-10-09T23:23:01.609Z,13.10
2018-10-09T23:25:29.682Z,13.10
2018-10-09T23:27:57.829Z,13.10
2018-10-09T23:30:25.911Z,13.10
2018-10-09T23:32:54.030Z,13.10
2018-10-09T23:35:22.069Z,13.10
2018-10-09T23:37:50.117Z,13.10
2018-10-09T23:40:18.297Z,13.10
2018-10-09T23:42:46.368Z,13.00
2018-10-09T23:45:14.493Z,13.00
2018-10-09T23:47:42.536Z,12.90
2018-10-09T23:50:10.669Z,12.90
2018-10-09T23:52:38.696Z,12.90
2018-10-09T23:55:06.835Z,12.80
2018-10-09T23:57:34.925Z,12.80
